createdAt,value
2017-02-27T00:00:28.803Z,52.76
2017-02-27T00:01:37.686Z,52.95
2017-02-27T00:02:46.595Z,52.76
2017-02-27T00:03:55.480Z,52.67
2017-02-27T00:05:04.365Z,52.47
2017-02-27T00:06:13.248Z,51.41
2017-02-27T00:07:22.135Z,52.47
2017-02-27T00:08:31.033Z,52.47
2017-02-27T00:09:39.954Z,52.37
2017-02-27T00:10:48.844Z,52.55
2017-02-27T00:11:57.760Z,52.64
2017-02-27T00:13:06.679Z,52.73
2017-02-27T00:14:15.567Z,52.64
2017-02-27T00:15:24.483Z,52.16
2017-02-27T00:16:33.377Z,52.35
2017-02-27T00:17:42.308Z,52.73
2017-02-27T00:18:51.192Z,52.45
2017-02-27T00:20:00.084Z,51.48
2017-02-27T00:21:08.969Z,51.58
2017-02-27T00:22:17.898Z,53.03
2017-02-27T00:23:26.796Z,53.03
2017-02-27T00:24:35.720Z,52.55
2017-02-27T00:25:44.604Z,52.61
2017-02-27T00:26:53.508Z,52.61
2017-02-27T00:28:02.385Z,52.61
2017-02-27T00:29:11.313Z,52.71
2017-02-27T00:30:20.204Z,52.81
2017-02-27T00:31:29.084Z,52.52
2017-02-27T00:32:37.997Z,52.71
2017-02-27T00:33:47.059Z,52.04
2017-02-27T00:34:55.985Z,52.61
2017-02-27T00:36:05.267Z,51.56
2017-02-27T00:37:14.577Z,51.46
2017-02-27T00:38:23.495Z,52.52
2017-02-27T00:39:32.414Z,52.04
2017-02-27T00:40:41.298Z,51.94
2017-02-27T00:41:50.194Z,52.42
2017-02-27T00:42:59.096Z,51.84
2017-02-27T00:44:08.408Z,52.49
2017-02-27T00:45:17.298Z,51.34
2017-02-27T00:46:26.173Z,52.4
2017-02-27T00:47:35.066Z,51.72
2017-02-27T00:48:43.956Z,51.82
2017-02-27T00:49:52.833Z,52.3
2017-02-27T00:51:01.711Z,51.34
2017-02-27T00:52:10.597Z,51.56
2017-02-27T00:53:19.480Z,51.34
2017-02-27T00:54:28.359Z,51.53
2017-02-27T00:55:37.278Z,51.82
2017-02-27T00:56:46.164Z,52.4
2017-02-27T00:57:55.067Z,51.92
2017-02-27T00:59:03.976Z,52.49
2017-02-27T01:00:12.873Z,52.49
2017-02-27T01:01:21.787Z,52.01
2017-02-27T01:02:30.670Z,52.4
2017-02-27T01:03:39.552Z,52.37
2017-02-27T01:04:48.434Z,51.7
2017-02-27T01:05:57.337Z,52.37
2017-02-27T01:07:06.213Z,52.4
2017-02-27T01:08:15.120Z,52.3
2017-02-27T01:09:24.005Z,52.37
2017-02-27T01:10:32.897Z,52.66
2017-02-27T01:11:41.798Z,52.66
2017-02-27T01:12:50.684Z,51.89
2017-02-27T01:13:59.993Z,52.47
2017-02-27T01:15:08.877Z,52.27
2017-02-27T01:16:17.765Z,52.85
2017-02-27T01:17:26.662Z,52.66
2017-02-27T01:18:35.951Z,52.56
2017-02-27T01:19:44.854Z,52.47
2017-02-27T01:20:53.733Z,52.27
2017-02-27T01:22:03.027Z,52.27
2017-02-27T01:23:11.944Z,52.56
2017-02-27T01:24:20.839Z,52.66
2017-02-27T01:25:29.745Z,52.56
2017-02-27T01:26:38.627Z,52.54
2017-02-27T01:27:47.509Z,52.56
2017-02-27T01:28:56.388Z,52.47
2017-02-27T01:30:05.275Z,51.79
2017-02-27T01:31:14.201Z,52.27
2017-02-27T01:32:23.092Z,52.66
2017-02-27T01:33:31.976Z,52.56
2017-02-27T01:34:40.858Z,52.47
2017-02-27T01:53:48.488Z,51.86
2017-02-27T01:54:57.401Z,51.76
2017-02-27T01:56:06.303Z,52.15
2017-02-27T01:57:15.193Z,52.54
2017-02-27T01:58:24.143Z,52.63
2017-02-27T01:59:33.044Z,52.73
2017-02-27T02:00:42.343Z,52.83
2017-02-27T02:01:51.243Z,52.54
2017-02-27T02:03:00.573Z,53.19
2017-02-27T02:04:09.476Z,52.54
2017-02-27T02:05:18.395Z,52.73
2017-02-27T02:06:27.277Z,52.8
2017-02-27T02:07:36.564Z,53.09
2017-02-27T02:08:45.478Z,53.09
2017-02-27T02:09:54.416Z,52.99
2017-02-27T02:11:03.337Z,53.09
2017-02-27T02:12:12.658Z,52.99
2017-02-27T02:13:21.574Z,52.99
2017-02-27T02:14:30.505Z,52.99
2017-02-27T02:15:39.392Z,53.09
2017-02-27T02:16:48.286Z,53.76
2017-02-27T02:17:57.177Z,53.76
2017-02-27T02:19:06.063Z,52.89
2017-02-27T02:20:14.952Z,52.99
2017-02-27T02:21:23.841Z,53.19
2017-02-27T02:22:32.732Z,52.8
2017-02-27T02:23:41.629Z,52.99
2017-02-27T02:24:50.557Z,52.89
2017-02-27T02:25:59.447Z,53.09
2017-02-27T02:27:08.330Z,52.89
2017-02-27T02:28:17.214Z,53.09
2017-02-27T02:29:26.102Z,53.09
2017-02-27T02:30:34.988Z,53.66
2017-02-27T02:31:44.309Z,53.09
2017-02-27T02:32:53.204Z,53.74
2017-02-27T02:34:02.118Z,53.45
2017-02-27T02:35:11.004Z,53.19
2017-02-27T02:36:19.923Z,53.09
2017-02-27T02:37:28.851Z,53.38
2017-02-27T02:38:38.126Z,53.16
2017-02-27T02:39:47.414Z,53.19
2017-02-27T02:40:56.324Z,52.8
2017-02-27T02:42:05.202Z,53.38
2017-02-27T02:43:14.086Z,53.19
2017-02-27T02:44:22.966Z,53.19
2017-02-27T02:45:31.853Z,52.99
2017-02-27T02:46:41.156Z,52.77
2017-02-27T02:47:50.060Z,52.99
2017-02-27T02:48:58.962Z,52.8
2017-02-27T02:50:07.877Z,52.89
2017-02-27T02:51:16.766Z,53.74
2017-02-27T02:52:25.689Z,53.64
2017-02-27T02:53:34.596Z,53.74
2017-02-27T02:54:43.488Z,53.45
2017-02-27T02:55:52.371Z,53.54
2017-02-27T02:57:01.282Z,53.92
2017-02-27T02:58:10.189Z,54.02
2017-02-27T02:59:19.139Z,53.54
2017-02-27T03:00:28.462Z,53.74
2017-02-27T03:01:37.381Z,53.92
2017-02-27T03:02:46.665Z,54.02
2017-02-27T03:03:55.560Z,53.64
2017-02-27T03:05:04.442Z,53.64
2017-02-27T03:06:13.576Z,54.02
2017-02-27T03:07:22.475Z,53.74
2017-02-27T03:08:31.357Z,53.92
2017-02-27T03:09:40.244Z,53.64
2017-02-27T03:10:49.147Z,53.54
2017-02-27T03:11:58.047Z,53.74
2017-02-27T03:13:06.942Z,53.83
2017-02-27T03:14:15.829Z,53.74
2017-02-27T03:15:24.710Z,53.92
2017-02-27T03:16:33.618Z,53.74
2017-02-27T03:17:42.523Z,53.45
2017-02-27T03:18:51.440Z,53.74
2017-02-27T03:20:00.337Z,53.9
2017-02-27T03:21:09.622Z,53.9
2017-02-27T03:22:18.503Z,53.54
2017-02-27T03:23:29.859Z,53.92
2017-02-27T03:24:43.740Z,53.8
2017-02-27T03:25:53.823Z,53.8
2017-02-27T03:27:02.738Z,53.9
2017-02-27T03:28:11.630Z,53.8
2017-02-27T03:29:20.530Z,54
2017-02-27T03:30:29.415Z,53.61
2017-02-27T03:31:38.301Z,53.9
2017-02-27T03:32:47.210Z,53.61
2017-02-27T03:33:56.091Z,53.42
2017-02-27T03:35:04.985Z,53.61
2017-02-27T03:36:13.895Z,53.7
2017-02-27T03:37:22.843Z,53.42
2017-02-27T03:38:31.747Z,53.61
2017-02-27T03:39:40.642Z,52.94
2017-02-27T03:40:49.552Z,53.61
2017-02-27T03:41:58.442Z,53.35
2017-02-27T03:43:07.360Z,53.61
2017-02-27T03:44:16.274Z,53.61
2017-02-27T03:45:25.152Z,53.52
2017-02-27T03:46:34.843Z,53.61
2017-02-27T03:47:43.752Z,53.61
2017-02-27T03:48:52.685Z,53.7
2017-02-27T03:50:01.594Z,53.61
2017-02-27T03:51:10.888Z,53.52
2017-02-27T03:52:19.788Z,53.7
2017-02-27T03:53:28.702Z,53.32
2017-02-27T03:54:37.602Z,53.52
2017-02-27T03:55:46.498Z,54.09
2017-02-27T03:56:55.393Z,54.19
2017-02-27T03:58:04.295Z,53.78
2017-02-27T03:59:13.190Z,53.8
2017-02-27T04:00:22.086Z,54.19
2017-02-27T04:01:30.996Z,54.09
2017-02-27T04:02:39.887Z,54.19
2017-02-27T04:03:48.773Z,54.28
2017-02-27T04:04:57.661Z,54.09
2017-02-27T04:06:06.963Z,54.09
2017-02-27T04:07:15.847Z,54.06
2017-02-27T04:08:24.745Z,54.09
2017-02-27T04:09:33.635Z,54.09
2017-02-27T04:10:42.556Z,53.9
2017-02-27T04:11:51.465Z,54.19
2017-02-27T04:13:00.370Z,53.8
2017-02-27T04:14:09.269Z,54.19
2017-02-27T04:15:18.173Z,54.19
2017-02-27T04:16:27.069Z,54.09
2017-02-27T04:17:35.948Z,54.38
2017-02-27T04:18:44.851Z,54.47
2017-02-27T04:19:53.746Z,54.55
2017-02-27T04:21:02.651Z,54.45
2017-02-27T04:22:11.547Z,55.22
2017-02-27T04:23:20.429Z,54.83
2017-02-27T04:24:29.324Z,55.02
2017-02-27T04:25:38.225Z,55.02
2017-02-27T04:26:47.126Z,54.83
2017-02-27T04:27:56.019Z,54.45
2017-02-27T04:29:04.902Z,54.74
2017-02-27T04:30:13.806Z,55.12
2017-02-27T04:31:22.726Z,54.93
2017-02-27T04:32:32.020Z,55.02
2017-02-27T04:33:40.939Z,54.93
2017-02-27T04:34:49.822Z,55.22
2017-02-27T04:35:58.712Z,54.93
2017-02-27T04:37:07.598Z,55.02
2017-02-27T04:38:16.494Z,55.02
2017-02-27T04:39:25.806Z,55.32
2017-02-27T04:40:34.749Z,55.41
2017-02-27T04:41:43.648Z,55.22
2017-02-27T04:42:52.946Z,55.22
2017-02-27T04:44:01.834Z,55.22
2017-02-27T04:45:10.717Z,55.41
2017-02-27T04:46:19.621Z,55.32
2017-02-27T04:47:28.515Z,55
2017-02-27T04:48:37.423Z,55.1
2017-02-27T04:49:46.338Z,55.51
2017-02-27T04:50:55.223Z,55.19
2017-02-27T04:52:04.118Z,55.29
2017-02-27T04:53:13.008Z,55.67
2017-02-27T04:54:21.907Z,55.19
2017-02-27T04:55:30.789Z,55.51
2017-02-27T04:56:39.689Z,55.29
2017-02-27T04:57:48.574Z,55.47
2017-02-27T04:58:57.450Z,55.29
2017-02-27T05:00:06.747Z,55.19
2017-02-27T05:01:15.629Z,55
2017-02-27T05:02:24.517Z,55.38
2017-02-27T05:03:33.409Z,55
2017-02-27T05:04:42.310Z,55.29
2017-02-27T05:05:51.191Z,55.29
2017-02-27T05:07:00.078Z,55.29
2017-02-27T05:08:08.967Z,55.77
2017-02-27T05:09:17.877Z,55.19
2017-02-27T05:10:26.763Z,55.77
2017-02-27T05:11:35.646Z,55.38
2017-02-27T05:12:44.520Z,55.38
2017-02-27T05:13:53.434Z,55.57
2017-02-27T05:15:02.333Z,55.77
2017-02-27T05:16:11.216Z,55.57
2017-02-27T05:17:20.100Z,57.14
2017-02-27T05:18:29.000Z,56.95
2017-02-27T05:19:37.927Z,56.95
2017-02-27T05:20:46.824Z,57.59
2017-02-27T05:21:56.672Z,57.88
2017-02-27T05:23:05.556Z,57.3
2017-02-27T05:24:14.436Z,57.97
2017-02-27T05:25:23.326Z,57.5
2017-02-27T05:26:32.222Z,57.59
2017-02-27T05:27:41.524Z,57.4
2017-02-27T05:28:50.419Z,57.46
2017-02-27T05:29:59.299Z,57.75
2017-02-27T05:31:08.176Z,56.89
2017-02-27T05:32:17.063Z,56.98
2017-02-27T05:33:26.390Z,57.01
2017-02-27T05:34:35.704Z,56.73
2017-02-27T05:35:44.583Z,57.21
2017-02-27T05:36:53.524Z,57.18
2017-02-27T05:38:02.396Z,56.82
2017-02-27T05:39:11.683Z,57.08
2017-02-27T05:40:20.558Z,57.01
2017-02-27T05:41:29.457Z,56.79
2017-02-27T05:42:38.348Z,57.08
2017-02-27T05:43:47.233Z,56.79
2017-02-27T05:44:56.113Z,56.98
2017-02-27T05:46:04.996Z,57.08
2017-02-27T05:47:13.882Z,56.79
2017-02-27T05:48:22.783Z,56.51
2017-02-27T05:49:32.071Z,56.7
2017-02-27T05:50:40.959Z,56.31
2017-02-27T05:51:49.836Z,56.6
2017-02-27T05:52:58.721Z,57.08
2017-02-27T05:54:07.650Z,56.98
2017-02-27T05:55:16.563Z,56.98
2017-02-27T05:56:25.459Z,56.89
2017-02-27T05:57:34.345Z,56.6
2017-02-27T05:58:43.238Z,56.79
2017-02-27T05:59:52.146Z,56.22
2017-02-27T06:01:01.026Z,56.6
2017-02-27T06:02:10.327Z,56.02
2017-02-27T06:03:19.634Z,56.31
2017-02-27T06:04:28.517Z,56.51
2017-02-27T06:05:37.404Z,56.51
2017-02-27T06:06:46.697Z,57.08
2017-02-27T06:07:55.599Z,57.37
2017-02-27T06:09:04.486Z,58.55
2017-02-27T06:10:13.381Z,59.41
2017-02-27T06:11:22.277Z,58.87
2017-02-27T06:12:31.153Z,62.32
2017-02-27T06:13:40.034Z,63.22
2017-02-27T06:14:48.917Z,64.25
2017-02-27T06:15:57.820Z,64.76
2017-02-27T06:17:06.731Z,63.67
2017-02-27T06:18:15.624Z,65.62
2017-02-27T06:19:24.930Z,63.67
2017-02-27T06:20:33.819Z,63.7
2017-02-27T06:21:42.713Z,65.14
2017-02-27T06:22:51.594Z,65.72
2017-02-27T06:24:00.516Z,66.71
2017-02-27T06:25:09.413Z,70.27
2017-02-27T06:26:18.345Z,70.56
2017-02-27T06:27:27.234Z,66.71
2017-02-27T06:28:36.116Z,67.19
2017-02-27T06:29:45.011Z,69.5
2017-02-27T06:30:53.904Z,67.68
2017-02-27T06:32:02.797Z,67.68
2017-02-27T06:33:11.714Z,66.52
2017-02-27T06:34:20.593Z,65.94
2017-02-27T06:35:29.480Z,66.65
2017-02-27T06:36:38.354Z,67.8
2017-02-27T06:37:47.239Z,66.74
2017-02-27T06:38:56.133Z,66.46
2017-02-27T06:40:05.037Z,66.55
2017-02-27T06:41:13.938Z,66.55
2017-02-27T06:42:22.821Z,66.27
2017-02-27T06:43:31.722Z,66.07
2017-02-27T06:44:40.616Z,66.27
2017-02-27T06:45:49.520Z,66.55
2017-02-27T06:46:58.433Z,66.55
2017-02-27T06:48:07.316Z,66.46
2017-02-27T06:49:16.223Z,65.97
2017-02-27T06:50:25.506Z,66.39
2017-02-27T06:51:34.413Z,66.3
2017-02-27T06:52:43.298Z,66.78
2017-02-27T06:53:52.183Z,66.3
2017-02-27T06:55:01.070Z,66.68
2017-02-27T06:56:09.949Z,66.49
2017-02-27T06:57:19.264Z,66.58
2017-02-27T06:58:28.169Z,66.39
2017-02-27T06:59:37.482Z,66.3
2017-02-27T07:00:46.390Z,66.78
2017-02-27T07:01:55.304Z,66.58
2017-02-27T07:03:04.637Z,66.3
2017-02-27T07:04:13.665Z,67.1
2017-02-27T07:05:22.805Z,67.1
2017-02-27T07:06:31.721Z,67.29
2017-02-27T07:07:40.610Z,68.54
2017-02-27T07:08:49.521Z,67.87
2017-02-27T07:09:58.407Z,68.54
2017-02-27T07:11:07.625Z,68.06
2017-02-27T07:12:16.564Z,67.49
2017-02-27T07:13:25.465Z,67.39
2017-02-27T07:14:34.357Z,68.74
2017-02-27T07:15:43.278Z,69.7
2017-02-27T07:16:52.574Z,69.41
2017-02-27T07:18:01.499Z,68.64
2017-02-27T07:19:10.418Z,68.64
2017-02-27T07:20:19.331Z,68.74
2017-02-27T07:21:28.618Z,67.97
2017-02-27T07:22:37.504Z,69.41
2017-02-27T07:23:46.417Z,69.22
2017-02-27T07:24:55.312Z,69.89
2017-02-27T07:26:04.204Z,69.89
2017-02-27T07:27:13.123Z,70.56
2017-02-27T07:28:22.040Z,71.14
2017-02-27T07:29:30.956Z,71.47
2017-02-27T07:30:40.245Z,71.62
2017-02-27T07:31:49.148Z,71.66
2017-02-27T07:32:58.045Z,70.98
2017-02-27T07:34:07.357Z,70.7
2017-02-27T07:35:16.245Z,70.6
2017-02-27T07:36:25.159Z,70.6
2017-02-27T07:37:34.086Z,70.21
2017-02-27T07:38:42.967Z,70.7
2017-02-27T07:39:51.893Z,70.41
2017-02-27T07:41:00.786Z,70.79
2017-02-27T07:42:10.076Z,70.98
2017-02-27T07:43:18.972Z,70.79
2017-02-27T07:44:27.860Z,70.89
2017-02-27T07:45:36.747Z,70.21
2017-02-27T07:46:46.052Z,70.31
2017-02-27T07:47:54.960Z,70.5
2017-02-27T07:49:04.254Z,70.7
2017-02-27T07:50:13.176Z,70.89
2017-02-27T07:51:22.112Z,71.37
2017-02-27T07:52:31.032Z,71.08
2017-02-27T07:53:39.961Z,71.56
2017-02-27T07:54:49.263Z,71.66
2017-02-27T07:55:58.155Z,71.47
2017-02-27T07:57:07.458Z,71.37
2017-02-27T07:58:16.394Z,71.37
2017-02-27T07:59:25.302Z,71.56
2017-02-27T08:00:34.199Z,71.85
2017-02-27T08:01:43.110Z,72.24
2017-02-27T08:02:52.029Z,71.66
2017-02-27T08:04:00.919Z,72.33
2017-02-27T08:05:09.833Z,72.05
2017-02-27T08:06:18.762Z,72.14
2017-02-27T08:07:27.683Z,71.66
2017-02-27T08:08:36.610Z,71.95
2017-02-27T08:09:45.504Z,71.56
2017-02-27T08:10:54.390Z,71.7
2017-02-27T08:12:03.285Z,71.66
2017-02-27T08:13:12.227Z,71.6
2017-02-27T08:14:21.138Z,71.98
2017-02-27T08:15:30.427Z,71.85
2017-02-27T08:16:39.319Z,71.7
2017-02-27T08:17:48.257Z,72.08
2017-02-27T08:18:57.154Z,72.56
2017-02-27T08:20:06.080Z,71.98
2017-02-27T08:21:15.005Z,72.27
2017-02-27T08:22:23.900Z,72.18
2017-02-27T08:23:32.817Z,72.27
2017-02-27T08:24:41.726Z,72.08
2017-02-27T08:25:50.608Z,72.08
2017-02-27T08:26:59.542Z,71.79
2017-02-27T08:28:08.434Z,71.89
2017-02-27T08:29:17.329Z,71.7
2017-02-27T08:30:26.206Z,71.89
2017-02-27T08:31:35.104Z,73.05
2017-02-27T08:32:44.401Z,72.27
2017-02-27T08:33:53.305Z,71.98
2017-02-27T08:35:02.189Z,71.7
2017-02-27T08:36:11.101Z,73.24
2017-02-27T08:37:19.978Z,72.08
2017-02-27T08:38:28.870Z,71.79
2017-02-27T08:39:37.759Z,71.98
2017-02-27T08:40:46.711Z,72.27
2017-02-27T08:41:55.612Z,72.18
2017-02-27T08:43:04.528Z,71.89
2017-02-27T08:44:13.434Z,72.18
2017-02-27T08:45:22.318Z,72.56
2017-02-27T08:46:31.227Z,72.18
2017-02-27T08:47:40.120Z,72.56
2017-02-27T08:48:49.021Z,72.47
2017-02-27T08:49:57.943Z,72.27
2017-02-27T08:51:07.239Z,72.08
2017-02-27T08:52:16.171Z,72.08
2017-02-27T08:53:25.451Z,72.27
2017-02-27T08:54:34.791Z,72.37
2017-02-27T08:55:43.720Z,73.14
2017-02-27T08:56:52.627Z,72.56
2017-02-27T08:58:01.513Z,72.47
2017-02-27T08:59:10.422Z,72.75
2017-02-27T09:00:19.305Z,72.85
2017-02-27T09:01:28.191Z,73.14
2017-02-27T09:02:37.104Z,72.56
2017-02-27T09:03:46.412Z,72.75
2017-02-27T09:04:55.293Z,73.05
2017-02-27T09:06:04.591Z,72.56
2017-02-27T09:07:13.875Z,72.56
2017-02-27T09:08:22.878Z,72.95
2017-02-27T09:09:31.769Z,72.66
2017-02-27T09:10:40.678Z,72.75
2017-02-27T09:11:49.580Z,73.14
2017-02-27T09:12:58.458Z,72.95
2017-02-27T09:14:07.354Z,72.66
2017-02-27T09:15:16.261Z,72.75
2017-02-27T09:16:25.155Z,72.99
2017-02-27T09:17:34.053Z,73.37
2017-02-27T09:18:42.971Z,73.18
2017-02-27T09:19:51.855Z,72.85
2017-02-27T09:21:00.756Z,72.99
2017-02-27T09:22:09.672Z,73.57
2017-02-27T09:23:18.577Z,73.37
2017-02-27T09:24:27.493Z,73.33
2017-02-27T09:25:36.374Z,73.47
2017-02-27T09:26:45.292Z,73.47
2017-02-27T09:27:54.197Z,73.47
2017-02-27T09:29:03.102Z,73.47
2017-02-27T09:30:12.393Z,73.47
2017-02-27T09:31:21.695Z,73.57
2017-02-27T09:32:30.618Z,73.37
2017-02-27T09:33:39.504Z,73.37
2017-02-27T09:34:48.386Z,73.18
2017-02-27T09:35:57.278Z,73.57
2017-02-27T09:37:06.580Z,73.27
2017-02-27T09:38:15.492Z,73.57
2017-02-27T09:39:24.391Z,73.57
2017-02-27T09:40:33.327Z,73.37
2017-02-27T09:41:42.656Z,73.37
2017-02-27T09:42:51.580Z,73.75
2017-02-27T09:44:00.458Z,73.37
2017-02-27T09:45:09.341Z,73.37
2017-02-27T09:46:18.217Z,72.89
2017-02-27T09:47:27.109Z,73.37
2017-02-27T09:48:36.037Z,73.66
2017-02-27T09:49:44.939Z,73.57
2017-02-27T09:50:53.826Z,72.89
2017-02-27T09:52:03.122Z,72.99
2017-02-27T09:53:12.014Z,73.37
2017-02-27T09:54:20.899Z,72.99
2017-02-27T09:55:29.781Z,73.18
2017-02-27T09:56:38.708Z,73.66
2017-02-27T09:57:47.618Z,72.79
2017-02-27T09:58:56.513Z,73.08
2017-02-27T10:00:05.405Z,73.37
2017-02-27T10:01:14.327Z,73.37
2017-02-27T10:02:23.628Z,73.57
2017-02-27T10:03:32.534Z,73.57
2017-02-27T10:04:41.468Z,73.37
2017-02-27T10:05:50.400Z,73.37
2017-02-27T10:06:59.305Z,73.27
2017-02-27T10:08:08.200Z,72.89
2017-02-27T10:09:17.078Z,73.27
2017-02-27T10:10:25.975Z,73.18
2017-02-27T10:11:34.861Z,72.89
2017-02-27T10:12:43.792Z,72.99
2017-02-27T10:13:52.707Z,73.18
2017-02-27T10:15:01.606Z,73.08
2017-02-27T10:16:10.942Z,72.89
2017-02-27T10:17:19.855Z,72.92
2017-02-27T10:18:28.735Z,72.6
2017-02-27T10:19:37.618Z,72.5
2017-02-27T10:20:46.903Z,72.83
2017-02-27T10:21:55.802Z,72.21
2017-02-27T10:23:04.720Z,72.21
2017-02-27T10:24:13.604Z,72.69
2017-02-27T10:25:22.517Z,72.63
2017-02-27T10:26:31.796Z,73.02
2017-02-27T10:27:40.684Z,72.63
2017-02-27T10:28:49.617Z,73.21
2017-02-27T10:29:58.508Z,72.44
2017-02-27T10:31:07.418Z,72.34
2017-02-27T10:32:16.332Z,72.25
2017-02-27T10:33:25.216Z,72.25
2017-02-27T10:34:34.132Z,72.34
2017-02-27T10:35:43.040Z,72.25
2017-02-27T10:36:51.923Z,72.34
2017-02-27T10:38:00.817Z,72.34
2017-02-27T10:39:09.702Z,72.15
2017-02-27T10:40:18.601Z,72.34
2017-02-27T10:41:27.497Z,72.73
2017-02-27T10:42:36.783Z,72.34
2017-02-27T10:43:45.685Z,72.15
2017-02-27T10:44:54.607Z,72.44
2017-02-27T10:46:03.521Z,72.06
2017-02-27T10:47:12.404Z,72.34
2017-02-27T10:48:21.305Z,71.77
2017-02-27T10:49:30.185Z,71.96
2017-02-27T10:50:39.075Z,72.15
2017-02-27T10:51:47.999Z,72.15
2017-02-27T10:52:56.901Z,71.96
2017-02-27T10:54:05.799Z,71.86
2017-02-27T10:55:14.688Z,71.61
2017-02-27T10:56:23.993Z,71.67
2017-02-27T10:57:32.886Z,71.8
2017-02-27T10:58:41.799Z,71.9
2017-02-27T10:59:50.706Z,72
2017-02-27T11:00:59.620Z,71.61
2017-02-27T11:02:08.534Z,71.9
2017-02-27T11:03:17.441Z,72.09
2017-02-27T11:04:26.358Z,72.19
2017-02-27T11:05:35.257Z,72
2017-02-27T11:06:44.151Z,71.9
2017-02-27T11:07:53.048Z,71.9
2017-02-27T11:09:01.953Z,72.19
2017-02-27T11:10:10.864Z,71.9
2017-02-27T11:11:19.766Z,71.9
2017-02-27T11:12:28.685Z,71.9
2017-02-27T11:13:37.971Z,72.09
2017-02-27T11:14:47.281Z,71.8
2017-02-27T11:15:56.192Z,72.09
2017-02-27T11:17:05.075Z,71.8
2017-02-27T11:18:13.980Z,72
2017-02-27T11:19:22.872Z,71.8
2017-02-27T11:20:31.785Z,71.61
2017-02-27T11:21:40.676Z,71.9
2017-02-27T11:22:49.614Z,71.9
2017-02-27T11:23:58.916Z,72.19
2017-02-27T11:25:07.834Z,72
2017-02-27T11:26:16.741Z,71.9
2017-02-27T11:27:25.678Z,71.7
2017-02-27T11:28:34.589Z,72
2017-02-27T11:29:43.511Z,72
2017-02-27T11:30:52.421Z,72
2017-02-27T11:32:01.298Z,72.09
2017-02-27T11:33:10.180Z,71.9
2017-02-27T11:34:19.076Z,72.09
2017-02-27T11:35:28.667Z,71.61
2017-02-27T11:36:37.547Z,72
2017-02-27T11:37:46.442Z,72
2017-02-27T11:38:55.730Z,71.8
2017-02-27T11:40:04.677Z,71.32
2017-02-27T11:41:13.593Z,71.7
2017-02-27T11:42:22.471Z,71.9
2017-02-27T11:43:31.385Z,71.9
2017-02-27T11:44:40.279Z,71.9
2017-02-27T11:45:49.169Z,71.9
2017-02-27T11:46:58.068Z,71.51
2017-02-27T11:48:06.960Z,71.7
2017-02-27T11:49:15.859Z,71.42
2017-02-27T11:50:25.158Z,71.32
2017-02-27T11:51:34.037Z,71.61
2017-02-27T11:52:42.920Z,71.32
2017-02-27T11:53:51.803Z,71.51
2017-02-27T11:55:00.699Z,71.61
2017-02-27T11:56:10.027Z,71.8
2017-02-27T11:57:18.941Z,71.22
2017-02-27T11:58:27.836Z,71.8
2017-02-27T11:59:36.765Z,71.61
2017-02-27T12:00:45.702Z,71.12
2017-02-27T12:01:55.006Z,71.61
2017-02-27T12:03:04.325Z,71.12
2017-02-27T12:04:13.610Z,71.03
2017-02-27T12:05:22.489Z,70.84
2017-02-27T12:06:31.403Z,70.84
2017-02-27T12:07:40.289Z,70.94
2017-02-27T12:08:49.220Z,70.84
2017-02-27T12:09:58.123Z,71.32
2017-02-27T12:11:07.442Z,70.94
2017-02-27T12:12:16.358Z,70.97
2017-02-27T12:13:25.260Z,70.64
2017-02-27T12:14:34.149Z,71.12
2017-02-27T12:15:43.032Z,70.97
2017-02-27T12:16:51.904Z,71.12
2017-02-27T12:18:00.793Z,70.68
2017-02-27T12:19:09.686Z,70.78
2017-02-27T12:20:19.003Z,70.78
2017-02-27T12:21:27.911Z,70.97
2017-02-27T12:22:36.824Z,70.87
2017-02-27T12:23:45.710Z,70.68
2017-02-27T12:24:54.596Z,70.87
2017-02-27T12:26:03.522Z,70.97
2017-02-27T12:27:12.469Z,70.87
2017-02-27T12:28:21.370Z,70.78
2017-02-27T12:29:30.273Z,70.58
2017-02-27T12:30:39.179Z,71.06
2017-02-27T12:31:48.064Z,70.68
2017-02-27T12:32:56.960Z,70.78
2017-02-27T12:34:06.252Z,70.68
2017-02-27T12:35:15.154Z,70.87
2017-02-27T12:36:24.050Z,70.68
2017-02-27T12:37:32.933Z,70.68
2017-02-27T12:38:41.844Z,70.68
2017-02-27T12:39:51.141Z,71.26
2017-02-27T12:41:00.022Z,70.97
2017-02-27T12:42:08.921Z,70.78
2017-02-27T12:43:17.804Z,70.78
2017-02-27T12:44:26.698Z,70.78
2017-02-27T12:45:35.607Z,70.39
2017-02-27T12:46:44.494Z,70.48
2017-02-27T12:47:53.806Z,70.58
2017-02-27T12:49:02.693Z,70.39
2017-02-27T12:50:11.590Z,70.48
2017-02-27T12:51:20.502Z,70.78
2017-02-27T12:52:29.388Z,70.39
2017-02-27T12:53:38.292Z,70.68
2017-02-27T12:54:47.191Z,70.78
2017-02-27T12:55:56.528Z,70.78
2017-02-27T12:57:05.432Z,70.58
2017-02-27T12:58:14.362Z,70.58
2017-02-27T12:59:23.279Z,70.78
2017-02-27T13:00:32.165Z,70.39
2017-02-27T13:01:41.062Z,70.39
2017-02-27T13:02:49.947Z,70.48
2017-02-27T13:03:58.828Z,70.48
2017-02-27T13:05:07.725Z,70.58
2017-02-27T13:06:17.013Z,70
2017-02-27T13:07:25.903Z,70.1
2017-02-27T13:08:34.796Z,70.29
2017-02-27T13:09:43.685Z,70.48
2017-02-27T13:10:52.576Z,70.48
2017-02-27T13:12:01.475Z,70.78
2017-02-27T13:13:10.378Z,70.78
2017-02-27T13:14:19.276Z,70.78
2017-02-27T13:15:28.220Z,70.39
2017-02-27T13:16:37.134Z,70.48
2017-02-27T13:17:46.023Z,70.87
2017-02-27T13:18:54.957Z,70.48
2017-02-27T13:20:04.249Z,70.58
2017-02-27T13:21:13.166Z,70.39
2017-02-27T13:22:22.068Z,70.1
2017-02-27T13:23:30.992Z,70.1
2017-02-27T13:24:39.896Z,70.2
2017-02-27T13:25:49.200Z,70.29
2017-02-27T13:26:58.097Z,70.39
2017-02-27T13:28:06.988Z,70.29
2017-02-27T13:29:15.910Z,70.1
2017-02-27T13:30:24.790Z,70
2017-02-27T13:31:34.106Z,70.2
2017-02-27T13:32:43.016Z,70.2
2017-02-27T13:33:51.954Z,69.62
2017-02-27T13:35:00.855Z,70.29
2017-02-27T13:36:10.040Z,70.23
2017-02-27T13:37:18.932Z,70.39
2017-02-27T13:38:27.812Z,70.2
2017-02-27T13:39:36.718Z,70.29
2017-02-27T13:40:45.653Z,70.29
2017-02-27T13:41:54.568Z,70.23
2017-02-27T13:43:03.456Z,70.42
2017-02-27T13:44:12.763Z,70.23
2017-02-27T13:45:21.648Z,70.68
2017-02-27T13:46:30.547Z,70.2
2017-02-27T13:47:39.430Z,70.29
2017-02-27T13:48:48.316Z,70.2
2017-02-27T13:49:57.207Z,70.29
2017-02-27T13:51:06.108Z,70.2
2017-02-27T13:52:15.012Z,70.48
2017-02-27T13:53:23.944Z,70.39
2017-02-27T13:54:33.259Z,70.81
2017-02-27T13:55:42.144Z,70.48
2017-02-27T13:56:51.464Z,70.1
2017-02-27T13:58:00.369Z,70.23
2017-02-27T13:59:09.281Z,70.32
2017-02-27T14:00:18.207Z,70.42
2017-02-27T14:01:27.125Z,70.72
2017-02-27T14:02:36.004Z,70.58
2017-02-27T14:03:44.888Z,70.1
2017-02-27T14:04:53.809Z,70.52
2017-02-27T14:06:02.730Z,70.32
2017-02-27T14:07:11.639Z,70.23
2017-02-27T14:08:20.529Z,70.32
2017-02-27T14:09:29.446Z,70.62
2017-02-27T14:10:38.335Z,70.23
2017-02-27T14:11:47.225Z,70.42
2017-02-27T14:12:56.121Z,70.42
2017-02-27T14:14:05.000Z,70.9
2017-02-27T14:15:13.910Z,70.04
2017-02-27T14:16:22.798Z,70.48
2017-02-27T14:17:31.716Z,70.23
2017-02-27T14:18:40.616Z,70.81
2017-02-27T14:19:49.551Z,70.81
2017-02-27T14:20:58.472Z,70.72
2017-02-27T14:22:07.361Z,70.72
2017-02-27T14:23:16.251Z,70.81
2017-02-27T14:24:25.146Z,70.9
2017-02-27T14:25:34.045Z,70.9
2017-02-27T14:26:42.947Z,70.81
2017-02-27T14:27:51.834Z,70.62
2017-02-27T14:29:00.723Z,70.42
2017-02-27T14:30:09.615Z,70.72
2017-02-27T14:31:18.532Z,71.3
2017-02-27T14:32:27.858Z,70.81
2017-02-27T14:33:36.772Z,71
2017-02-27T14:34:45.655Z,71
2017-02-27T14:35:54.539Z,70.62
2017-02-27T14:37:03.448Z,71.1
2017-02-27T14:38:12.343Z,70.81
2017-02-27T14:39:21.233Z,70.48
2017-02-27T14:40:30.164Z,70.72
2017-02-27T14:41:39.052Z,70.81
2017-02-27T14:42:47.939Z,70.72
2017-02-27T14:43:56.820Z,70.81
2017-02-27T14:45:05.732Z,70.42
2017-02-27T14:46:14.616Z,70.52
2017-02-27T14:47:23.508Z,70.42
2017-02-27T14:48:32.407Z,70.52
2017-02-27T14:49:41.329Z,70.32
2017-02-27T14:50:50.246Z,70.81
2017-02-27T14:51:59.127Z,70.14
2017-02-27T14:53:08.042Z,70.14
2017-02-27T14:54:16.944Z,70.42
2017-02-27T14:55:25.843Z,70.32
2017-02-27T14:56:34.736Z,70.42
2017-02-27T14:57:43.662Z,69.94
2017-02-27T14:58:52.557Z,70.23
2017-02-27T15:00:01.451Z,70.42
2017-02-27T15:01:10.333Z,70.14
2017-02-27T15:02:19.250Z,70.32
2017-02-27T15:03:28.157Z,70.23
2017-02-27T15:04:37.048Z,70.14
2017-02-27T15:05:45.933Z,69.74
2017-02-27T15:06:54.817Z,69.84
2017-02-27T15:08:03.749Z,70.42
2017-02-27T15:09:12.648Z,70.04
2017-02-27T15:10:21.540Z,70.23
2017-02-27T15:11:30.433Z,70.23